createdAt,value
2023-02-15T00:01:54.659Z,100.00
2023-02-15T00:04:48.850Z,100.00
2023-02-15T00:07:17.535Z,100.00
2023-02-15T00:09:48.039Z,100.00
2023-02-15T00:12:16.690Z,100.00
2023-02-15T00:14:46.830Z,100.00
2023-02-15T00:17:14.484Z,100.00
2023-02-15T00:19:48.513Z,100.00
2023-02-15T00:22:18.659Z,100.00
2023-02-15T00:24:46.336Z,100.00
2023-02-15T00:27:15.895Z,100.00
2023-02-15T00:29:48.495Z,100.00
2023-02-15T00:32:16.209Z,100.00
2023-02-15T00:34:46.205Z,100.00
2023-02-15T00:37:17.125Z,100.00
2023-02-15T00:39:44.901Z,100.00
2023-02-15T00:42:14.882Z,100.00
2023-02-15T00:44:44.808Z,100.00
2023-02-15T00:47:12.541Z,100.00
2023-02-15T00:49:42.147Z,100.00
2023-02-15T00:52:12.144Z,100.00
2023-02-15T00:54:41.224Z,100.00
2023-02-15T00:57:10.805Z,100.00
2023-02-15T00:59:40.769Z,100.00
2023-02-15T01:02:08.494Z,100.00
2023-02-15T01:04:38.147Z,100.00
2023-02-15T01:07:08.187Z,100.00
2023-02-15T01:09:35.874Z,100.00
2023-02-15T01:12:06.950Z,100.00
2023-02-15T01:14:36.948Z,100.00
2023-02-15T01:17:04.643Z,100.00
2023-02-15T01:19:34.204Z,100.00
2023-02-15T01:22:04.598Z,100.00
2023-02-15T01:24:32.148Z,100.00
2023-02-15T01:27:01.803Z,100.00
2023-02-15T01:29:32.812Z,100.00
2023-02-15T01:32:00.613Z,100.00
2023-02-15T01:34:30.405Z,100.00
2023-02-15T01:37:00.438Z,100.00
2023-02-15T01:39:28.237Z,100.00
2023-02-15T01:41:58.127Z,100.00
2023-02-15T01:44:52.585Z,100.00
2023-02-15T01:50:05.544Z,100.00
2023-02-15T01:52:33.706Z,100.00
2023-02-15T01:55:07.150Z,100.00
2023-02-15T01:57:37.772Z,100.00
2023-02-15T02:00:10.616Z,100.00
2023-02-15T02:02:43.215Z,100.00
2023-02-15T02:05:10.998Z,100.00
2023-02-15T02:07:41.967Z,100.00
2023-02-15T02:10:17.235Z,100.00
2023-02-15T02:12:47.512Z,100.00
2023-02-15T02:15:21.318Z,100.00
2023-02-15T02:18:05.576Z,100.00
2023-02-15T02:21:23.359Z,100.00
2023-02-15T02:24:04.247Z,100.00
2023-02-15T02:27:08.961Z,100.00
2023-02-15T02:30:21.880Z,100.00
2023-02-15T02:33:24.065Z,100.00
2023-02-15T02:36:03.034Z,100.00
2023-02-15T02:38:43.780Z,100.00
2023-02-15T02:41:15.313Z,100.00
2023-02-15T02:43:52.664Z,100.00
2023-02-15T02:46:27.378Z,100.00
2023-02-15T02:49:01.121Z,100.00
2023-02-15T02:51:28.971Z,100.00
2023-02-15T02:54:04.975Z,100.00
2023-02-15T02:56:38.787Z,100.00
2023-02-15T02:59:15.596Z,100.00
2023-02-15T03:01:50.563Z,100.00
2023-02-15T03:04:27.322Z,100.00
2023-02-15T03:06:58.702Z,100.00
2023-02-15T03:09:44.405Z,100.00
2023-02-15T03:12:14.735Z,100.00
2023-02-15T03:14:48.891Z,100.00
2023-02-15T03:17:19.027Z,100.00
2023-02-15T03:19:55.377Z,100.00
2023-02-15T03:22:28.252Z,100.00
2023-02-15T03:25:11.881Z,100.00
2023-02-15T03:27:44.553Z,100.00
2023-02-15T03:30:19.575Z,100.00
2023-02-15T03:32:49.753Z,100.00
2023-02-15T03:35:26.377Z,100.00
2023-02-15T03:37:59.480Z,100.00
2023-02-15T03:40:52.067Z,100.00
2023-02-15T03:43:27.806Z,100.00
2023-02-15T03:46:03.990Z,100.00
2023-02-15T03:48:35.209Z,100.00
2023-02-15T03:51:29.509Z,100.00
2023-02-15T03:53:59.832Z,100.00
2023-02-15T03:56:29.931Z,100.00
2023-02-15T03:59:17.272Z,100.00
2023-02-15T04:01:59.560Z,100.00
2023-02-15T04:04:39.030Z,100.00
2023-02-15T04:07:11.159Z,100.00
2023-02-15T04:09:56.422Z,100.00
2023-02-15T04:12:26.372Z,100.00
2023-02-15T04:15:13.726Z,100.00
2023-02-15T04:17:43.866Z,100.00
2023-02-15T04:20:31.814Z,100.00
2023-02-15T04:23:24.704Z,100.00
2023-02-15T04:25:54.384Z,100.00
2023-02-15T04:28:24.371Z,100.00
2023-02-15T04:30:52.143Z,100.00
2023-02-15T04:33:21.996Z,100.00
2023-02-15T04:35:52.135Z,100.00
2023-02-15T04:38:25.383Z,100.00
2023-02-15T04:40:53.745Z,100.00
2023-02-15T04:43:21.969Z,100.00
2023-02-15T04:45:54.180Z,100.00
2023-02-15T04:48:22.076Z,100.00
2023-02-15T04:50:49.851Z,100.00
2023-02-15T04:53:24.951Z,100.00
2023-02-15T04:55:52.759Z,100.00
2023-02-15T04:58:22.844Z,100.00
2023-02-15T05:00:52.453Z,100.00
2023-02-15T05:03:20.156Z,100.00
2023-02-15T05:05:50.266Z,100.00
2023-02-15T05:08:20.274Z,100.00
2023-02-15T05:10:51.080Z,100.00
2023-02-15T05:13:22.946Z,100.00
2023-02-15T05:15:51.213Z,100.00
2023-02-15T05:18:19.891Z,100.00
2023-02-15T05:20:52.433Z,100.00
2023-02-15T05:23:20.209Z,100.00
2023-02-15T05:26:13.361Z,100.00
2023-02-15T05:28:41.445Z,100.00
2023-02-15T05:31:13.671Z,100.00
2023-02-15T05:33:44.036Z,100.00
2023-02-15T05:36:12.368Z,100.00
2023-02-15T05:38:42.461Z,100.00
2023-02-15T05:41:14.790Z,100.00
2023-02-15T05:43:42.614Z,100.00
2023-02-15T05:46:13.713Z,100.00
2023-02-15T05:48:43.441Z,100.00
2023-02-15T05:51:16.959Z,100.00
2023-02-15T05:53:48.874Z,100.00
2023-02-15T05:56:18.035Z,100.00
2023-02-15T05:58:45.789Z,100.00
2023-02-15T06:01:20.107Z,100.00
2023-02-15T06:03:48.015Z,100.00
2023-02-15T06:06:15.873Z,100.00
2023-02-15T06:08:48.148Z,100.00
2023-02-15T06:11:19.466Z,100.00
2023-02-15T06:13:47.144Z,100.00
2023-02-15T06:16:19.125Z,100.00
2023-02-15T06:18:47.432Z,100.00
2023-02-15T06:21:15.417Z,100.00
2023-02-15T06:23:46.069Z,100.00
2023-02-15T06:26:16.052Z,100.00
2023-02-15T06:28:45.102Z,100.00
2023-02-15T06:31:12.986Z,100.00
2023-02-15T06:33:44.943Z,100.00
2023-02-15T06:36:13.611Z,100.00
2023-02-15T06:38:41.288Z,100.00
2023-02-15T06:41:13.146Z,100.00
2023-02-15T06:43:41.214Z,100.00
2023-02-15T06:46:10.347Z,100.00
2023-02-15T06:48:42.241Z,100.00
2023-02-15T06:51:09.950Z,100.00
2023-02-15T06:53:37.843Z,100.00
2023-02-15T06:56:11.936Z,100.00
2023-02-15T06:58:40.543Z,100.00
2023-02-15T07:01:10.526Z,100.00
2023-02-15T07:03:40.229Z,100.00
2023-02-15T07:06:09.519Z,100.00
2023-02-15T07:08:40.564Z,100.00
2023-02-15T07:11:28.088Z,100.00
2023-02-15T07:13:58.118Z,100.00
2023-02-15T07:16:27.431Z,100.00
2023-02-15T07:18:57.109Z,100.00
2023-02-15T07:21:24.920Z,100.00
2023-02-15T07:23:55.225Z,100.00
2023-02-15T07:26:24.897Z,100.00
2023-02-15T07:28:54.861Z,100.00
2023-02-15T07:31:25.184Z,100.00
2023-02-15T07:33:54.515Z,100.00
2023-02-15T07:36:24.516Z,100.00
2023-02-15T07:38:52.179Z,100.00
2023-02-15T07:41:21.854Z,100.00
2023-02-15T07:43:49.628Z,100.00
2023-02-15T07:52:43.039Z,100.00
2023-02-15T07:55:13.890Z,100.00
2023-02-15T07:57:45.209Z,100.00
2023-02-15T08:00:14.708Z,100.00
2023-02-15T08:02:42.548Z,100.00
2023-02-15T08:05:11.732Z,100.00
2023-02-15T08:07:43.617Z,100.00
2023-02-15T08:10:31.796Z,100.00
2023-02-15T08:13:03.673Z,100.00
2023-02-15T08:15:32.555Z,100.00
2023-02-15T08:18:00.290Z,100.00
2023-02-15T08:20:33.213Z,100.00
2023-02-15T08:23:01.089Z,100.00
2023-02-15T08:25:28.852Z,100.00
2023-02-15T08:28:01.107Z,100.00
2023-02-15T08:30:28.940Z,100.00
2023-02-15T08:32:56.765Z,100.00
2023-02-15T08:35:28.681Z,100.00
2023-02-15T08:37:57.755Z,100.00
2023-02-15T08:40:25.479Z,100.00
2023-02-15T08:42:55.310Z,100.00
2023-02-15T08:45:23.120Z,100.00
2023-02-15T08:47:50.854Z,100.00
2023-02-15T08:50:19.139Z,100.00
2023-02-15T08:52:46.859Z,100.00
2023-02-15T08:55:16.626Z,100.00
2023-02-15T08:57:46.526Z,100.00
2023-02-15T09:00:15.937Z,100.00
2023-02-15T09:02:43.619Z,100.00
2023-02-15T09:05:15.296Z,100.00
2023-02-15T09:07:43.045Z,100.00
2023-02-15T09:10:11.423Z,100.00
2023-02-15T09:12:46.723Z,100.00
2023-02-15T09:15:14.518Z,100.00
2023-02-15T09:17:42.245Z,100.00
2023-02-15T09:20:12.726Z,100.00
2023-02-15T09:22:42.358Z,100.00
2023-02-15T09:25:10.055Z,100.00
2023-02-15T09:27:39.785Z,100.00
2023-02-15T09:30:12.151Z,100.00
2023-02-15T09:32:39.867Z,100.00
2023-02-15T09:35:10.154Z,100.00
2023-02-15T09:37:40.084Z,100.00
2023-02-15T09:40:08.604Z,100.00
2023-02-15T09:43:03.075Z,100.00
2023-02-15T09:45:56.909Z,100.00
2023-02-15T09:48:40.382Z,99.53
2023-02-15T09:51:26.895Z,99.89
2023-02-15T09:54:13.992Z,100.00
2023-02-15T09:56:47.900Z,100.00
2023-02-15T09:59:27.270Z,100.00
2023-02-15T10:02:10.091Z,100.00
2023-02-15T10:04:54.148Z,100.00
2023-02-15T10:07:44.340Z,100.00
2023-02-15T10:10:28.907Z,100.00
2023-02-15T10:13:14.619Z,100.00
2023-02-15T10:15:56.219Z,100.00
2023-02-15T10:18:41.899Z,100.00
2023-02-15T10:21:23.337Z,100.00
2023-02-15T10:24:12.990Z,100.00
2023-02-15T10:26:48.944Z,100.00
2023-02-15T10:29:29.883Z,100.00
2023-02-15T10:32:06.292Z,98.93
2023-02-15T10:34:40.839Z,99.63
2023-02-15T10:37:29.146Z,100.00
2023-02-15T10:40:07.334Z,99.39
2023-02-15T10:42:48.579Z,99.09
2023-02-15T10:45:26.167Z,100.00
2023-02-15T10:48:15.583Z,99.33
2023-02-15T10:50:50.262Z,100.00
2023-02-15T10:53:46.860Z,100.00
2023-02-15T10:56:22.290Z,100.00
2023-02-15T10:59:08.679Z,100.00
2023-02-15T11:01:46.303Z,99.43
2023-02-15T11:04:45.491Z,98.64
2023-02-15T11:07:20.453Z,99.66
2023-02-15T11:09:51.914Z,99.97
2023-02-15T11:12:23.620Z,99.91
2023-02-15T11:14:57.627Z,100.00
2023-02-15T11:17:30.363Z,100.00
2023-02-15T11:20:05.567Z,100.00
2023-02-15T11:22:35.886Z,100.00
2023-02-15T11:25:17.055Z,99.95
2023-02-15T11:27:48.102Z,100.00
2023-02-15T11:30:24.917Z,99.33
2023-02-15T11:32:55.559Z,99.76
2023-02-15T11:35:32.496Z,98.32
2023-02-15T11:38:08.240Z,99.16
2023-02-15T11:40:48.334Z,97.99
2023-02-15T11:43:22.731Z,96.72
2023-02-15T11:45:54.811Z,97.22
2023-02-15T11:48:23.068Z,97.64
2023-02-15T11:50:53.067Z,98.10
2023-02-15T11:53:28.878Z,96.93
2023-02-15T11:55:59.034Z,97.86
2023-02-15T11:58:36.833Z,98.24
2023-02-15T12:01:13.664Z,99.80
2023-02-15T12:03:50.780Z,99.84
2023-02-15T12:06:26.025Z,99.60
2023-02-15T12:09:04.180Z,99.95
2023-02-15T12:11:36.979Z,100.00
2023-02-15T12:14:09.233Z,100.00
2023-02-15T12:16:44.516Z,100.00
2023-02-15T12:19:34.031Z,100.00
2023-02-15T12:22:05.776Z,100.00
2023-02-15T12:24:40.953Z,100.00
2023-02-15T12:27:17.654Z,100.00
2023-02-15T12:29:51.857Z,100.00
2023-02-15T12:32:26.114Z,100.00
2023-02-15T12:35:03.243Z,100.00
2023-02-15T12:37:35.707Z,100.00
2023-02-15T12:40:24.748Z,100.00
2023-02-15T12:42:52.634Z,100.00
2023-02-15T12:45:29.522Z,100.00
2023-02-15T12:48:18.006Z,100.00
2023-02-15T12:51:06.244Z,100.00
2023-02-15T12:53:38.768Z,100.00
2023-02-15T12:56:12.286Z,100.00
2023-02-15T12:58:46.956Z,100.00
2023-02-15T13:01:19.457Z,100.00
2023-02-15T13:03:59.573Z,100.00
2023-02-15T13:06:28.760Z,100.00
2023-02-15T13:09:07.353Z,100.00
2023-02-15T13:11:46.569Z,100.00
2023-02-15T13:14:20.741Z,100.00
2023-02-15T13:16:53.015Z,100.00
2023-02-15T13:19:31.347Z,100.00
2023-02-15T13:22:05.657Z,100.00
2023-02-15T13:24:39.620Z,100.00
2023-02-15T13:27:17.443Z,100.00
2023-02-15T13:29:47.147Z,100.00
2023-02-15T13:32:27.601Z,100.00
2023-02-15T13:34:58.993Z,100.00
2023-02-15T13:37:45.786Z,100.00
2023-02-15T13:40:17.629Z,100.00
2023-02-15T13:42:53.347Z,100.00
2023-02-15T13:45:47.020Z,100.00
2023-02-15T13:48:22.656Z,100.00
2023-02-15T13:50:58.840Z,100.00
2023-02-15T13:53:40.853Z,100.00
2023-02-15T13:56:19.661Z,100.00
2023-02-15T13:59:14.409Z,100.00
2023-02-15T14:01:48.153Z,100.00
2023-02-15T14:04:52.127Z,100.00
2023-02-15T14:07:48.500Z,100.00
2023-02-15T14:10:35.251Z,100.00
2023-02-15T14:13:32.550Z,100.00
2023-02-15T14:16:10.544Z,100.00
2023-02-15T14:18:45.125Z,100.00
2023-02-15T14:21:22.156Z,100.00
2023-02-15T14:24:16.512Z,100.00
2023-02-15T14:26:54.074Z,100.00
2023-02-15T14:29:31.381Z,100.00
2023-02-15T14:32:06.270Z,100.00
2023-02-15T14:34:44.418Z,100.00
2023-02-15T14:37:15.990Z,100.00
2023-02-15T14:40:08.634Z,100.00
2023-02-15T14:42:43.554Z,100.00
2023-02-15T14:45:21.324Z,100.00
2023-02-15T14:48:03.515Z,100.00
2023-02-15T14:50:48.265Z,100.00
2023-02-15T14:53:27.044Z,100.00
2023-02-15T14:56:09.255Z,100.00
2023-02-15T14:58:39.667Z,100.00
2023-02-15T15:01:08.783Z,100.00
2023-02-15T15:03:45.258Z,100.00
2023-02-15T15:06:27.644Z,100.00
2023-02-15T15:09:00.834Z,100.00
2023-02-15T15:11:44.226Z,100.00
2023-02-15T15:14:28.390Z,100.00
2023-02-15T15:16:58.367Z,100.00
2023-02-15T15:20:06.017Z,100.00
2023-02-15T15:22:37.299Z,100.00
2023-02-15T15:25:11.585Z,100.00
2023-02-15T15:27:53.601Z,100.00
2023-02-15T15:31:01.744Z,100.00
2023-02-15T15:34:20.104Z,100.00
2023-02-15T15:37:10.521Z,100.00
2023-02-15T15:40:11.123Z,100.00
2023-02-15T15:42:47.289Z,100.00
2023-02-15T15:45:40.302Z,100.00
2023-02-15T15:48:30.979Z,100.00
2023-02-15T15:51:02.593Z,100.00
2023-02-15T15:53:37.131Z,100.00
2023-02-15T15:56:08.930Z,100.00
2023-02-15T15:58:36.992Z,100.00
2023-02-15T16:01:09.844Z,100.00
2023-02-15T16:03:37.672Z,100.00
2023-02-15T16:06:06.437Z,100.00
2023-02-15T16:08:38.627Z,100.00
2023-02-15T16:11:16.234Z,100.00
2023-02-15T16:13:44.760Z,100.00
2023-02-15T16:16:15.368Z,100.00
2023-02-15T16:18:43.579Z,100.00
2023-02-15T16:21:21.185Z,100.00
2023-02-15T16:24:07.324Z,100.00
2023-02-15T16:26:53.208Z,100.00
2023-02-15T16:29:31.557Z,100.00
2023-02-15T16:32:02.762Z,100.00
2023-02-15T16:34:33.415Z,100.00
2023-02-15T16:37:18.085Z,100.00
2023-02-15T16:39:49.002Z,100.00
2023-02-15T16:42:20.690Z,100.00
2023-02-15T16:44:52.140Z,100.00
2023-02-15T16:47:23.000Z,100.00
2023-02-15T16:49:53.461Z,100.00
2023-02-15T16:52:22.854Z,100.00
2023-02-15T16:54:55.548Z,100.00
2023-02-15T16:57:30.285Z,100.00
2023-02-15T17:00:02.642Z,100.00
2023-02-15T17:02:54.362Z,100.00
2023-02-15T17:05:21.951Z,100.00
2023-02-15T17:08:06.618Z,100.00
2023-02-15T17:10:37.744Z,100.00
2023-02-15T17:13:12.949Z,100.00
2023-02-15T17:15:42.679Z,100.00
2023-02-15T17:18:14.993Z,100.00
2023-02-15T17:20:46.754Z,100.00
2023-02-15T17:23:27.511Z,100.00
2023-02-15T17:25:57.614Z,100.00
2023-02-15T17:28:32.348Z,100.00
2023-02-15T17:31:01.055Z,100.00
2023-02-15T17:33:40.318Z,100.00
2023-02-15T17:36:11.405Z,100.00
2023-02-15T17:38:40.653Z,100.00
2023-02-15T17:41:09.738Z,100.00
2023-02-15T17:43:43.548Z,100.00
2023-02-15T17:46:11.678Z,100.00
2023-02-15T17:48:43.137Z,100.00
2023-02-15T17:51:16.923Z,100.00
2023-02-15T17:54:05.614Z,100.00
2023-02-15T17:56:34.329Z,100.00
2023-02-15T17:59:07.455Z,100.00
2023-02-15T18:01:58.509Z,100.00
2023-02-15T18:04:44.307Z,100.00
2023-02-15T18:07:33.602Z,100.00
2023-02-15T18:10:19.138Z,100.00
2023-02-15T18:12:51.018Z,100.00
2023-02-15T18:15:20.350Z,100.00
2023-02-15T18:17:48.947Z,100.00
2023-02-15T18:20:23.920Z,100.00
2023-02-15T18:22:53.004Z,100.00
2023-02-15T18:25:27.232Z,100.00
2023-02-15T18:27:55.456Z,100.00
2023-02-15T18:30:26.972Z,100.00
2023-02-15T18:32:57.717Z,100.00
2023-02-15T18:35:29.626Z,100.00
2023-02-15T18:37:57.695Z,100.00
2023-02-15T18:40:30.191Z,100.00
2023-02-15T18:43:00.130Z,100.00
2023-02-15T18:45:33.043Z,100.00
2023-02-15T18:48:00.938Z,100.00
2023-02-15T18:50:37.444Z,100.00
2023-02-15T18:53:08.006Z,100.00
2023-02-15T18:55:37.913Z,100.00
2023-02-15T18:58:07.911Z,100.00
2023-02-15T19:00:37.082Z,100.00
2023-02-15T19:03:07.004Z,100.00
2023-02-15T19:05:37.327Z,100.00
2023-02-15T19:08:06.330Z,100.00
2023-02-15T19:10:37.032Z,100.00
2023-02-15T19:13:04.909Z,100.00
2023-02-15T19:15:32.651Z,100.00
2023-02-15T19:18:03.585Z,100.00
2023-02-15T19:20:40.283Z,100.00
2023-02-15T19:23:17.992Z,100.00
2023-02-15T19:25:48.063Z,100.00
2023-02-15T19:28:18.114Z,100.00
2023-02-15T19:30:45.934Z,100.00
2023-02-15T19:33:20.688Z,100.00
2023-02-15T19:35:54.221Z,100.00
2023-02-15T19:38:26.303Z,100.00
2023-02-15T19:40:54.503Z,100.00
2023-02-15T19:43:26.315Z,100.00
2023-02-15T19:45:54.709Z,100.00
2023-02-15T19:48:24.874Z,100.00
2023-02-15T19:50:53.013Z,100.00
2023-02-15T19:53:25.434Z,100.00
2023-02-15T19:55:53.783Z,100.00
2023-02-15T19:58:22.137Z,100.00
2023-02-15T20:00:52.004Z,100.00
2023-02-15T20:03:20.042Z,100.00
2023-02-15T20:05:49.150Z,100.00
2023-02-15T20:08:19.850Z,100.00
2023-02-15T20:10:50.338Z,100.00
2023-02-15T20:13:20.313Z,100.00
2023-02-15T20:15:49.276Z,100.00
2023-02-15T20:18:21.859Z,100.00
2023-02-15T20:20:55.801Z,100.00
2023-02-15T20:23:26.695Z,100.00
2023-02-15T20:25:55.982Z,100.00
2023-02-15T20:28:30.410Z,100.00
2023-02-15T20:30:58.656Z,100.00
2023-02-15T20:33:26.491Z,100.00
2023-02-15T20:35:59.851Z,100.00
2023-02-15T20:38:29.894Z,100.00
2023-02-15T20:41:17.584Z,100.00
2023-02-15T20:43:45.357Z,100.00
2023-02-15T20:46:13.300Z,100.00
2023-02-15T20:48:42.569Z,100.00
2023-02-15T20:51:18.361Z,100.00
2023-02-15T20:53:46.703Z,100.00
2023-02-15T20:56:19.367Z,100.00
2023-02-15T20:58:51.403Z,100.00
2023-02-15T21:01:34.324Z,100.00
2023-02-15T21:04:08.853Z,100.00
2023-02-15T21:06:38.097Z,100.00
2023-02-15T21:09:09.830Z,100.00
2023-02-15T21:11:37.542Z,100.00
2023-02-15T21:14:05.262Z,100.00
2023-02-15T21:16:35.531Z,100.00
2023-02-15T21:19:03.278Z,100.00
2023-02-15T21:21:30.989Z,100.00
2023-02-15T21:24:03.904Z,100.00
2023-02-15T21:26:31.625Z,100.00
2023-02-15T21:28:59.310Z,100.00
2023-02-15T21:31:28.810Z,100.00
2023-02-15T21:33:56.648Z,100.00
2023-02-15T21:36:26.861Z,100.00
2023-02-15T21:38:58.808Z,100.00
2023-02-15T21:41:46.820Z,100.00
2023-02-15T21:44:41.219Z,100.00
2023-02-15T21:47:33.356Z,100.00
2023-02-15T21:50:23.240Z,100.00
2023-02-15T21:52:50.124Z,100.00
2023-02-15T21:55:20.133Z,100.00
2023-02-15T21:57:51.310Z,100.00
2023-02-15T22:00:20.992Z,100.00
2023-02-15T22:02:50.752Z,100.00
2023-02-15T22:05:22.283Z,100.00
2023-02-15T22:07:52.409Z,100.00
2023-02-15T22:10:22.635Z,100.00
2023-02-15T22:12:54.438Z,100.00
2023-02-15T22:15:27.160Z,100.00
2023-02-15T22:17:59.080Z,100.00
2023-02-15T22:20:27.060Z,100.00
2023-02-15T22:22:54.953Z,100.00
2023-02-15T22:25:26.531Z,100.00
2023-02-15T22:27:56.080Z,100.00
2023-02-15T22:30:29.552Z,100.00
2023-02-15T22:32:59.368Z,100.00
2023-02-15T22:35:33.452Z,100.00
2023-02-15T22:38:04.759Z,100.00
2023-02-15T22:40:37.428Z,100.00
2023-02-15T22:43:06.971Z,100.00
2023-02-15T22:45:36.295Z,100.00
2023-02-15T22:48:06.768Z,100.00
2023-02-15T22:50:35.859Z,100.00
2023-02-15T22:53:05.104Z,100.00
2023-02-15T22:55:41.402Z,100.00
2023-02-15T22:58:17.583Z,100.00
2023-02-15T23:00:50.808Z,100.00
2023-02-15T23:03:22.027Z,100.00
2023-02-15T23:05:50.404Z,100.00
2023-02-15T23:08:20.648Z,100.00
2023-02-15T23:10:54.451Z,100.00
2023-02-15T23:13:28.915Z,100.00
2023-02-15T23:15:59.255Z,100.00
2023-02-15T23:18:29.629Z,100.00
2023-02-15T23:21:02.077Z,100.00
2023-02-15T23:23:33.616Z,100.00
2023-02-15T23:26:07.267Z,100.00
2023-02-15T23:28:38.248Z,100.00
2023-02-15T23:31:19.110Z,100.00
2023-02-15T23:33:47.617Z,100.00
2023-02-15T23:36:28.392Z,100.00
2023-02-15T23:38:57.410Z,100.00
2023-02-15T23:41:31.612Z,100.00
2023-02-15T23:44:03.456Z,100.00
2023-02-15T23:46:41.911Z,100.00
2023-02-15T23:49:15.724Z,100.00
2023-02-15T23:51:50.322Z,100.00
2023-02-15T23:54:20.373Z,100.00
2023-02-15T23:56:55.906Z,100.00
2023-02-15T23:59:27.137Z,100.00
